sensor_id;sensor_type;location;lat;lon;timestamp;P1;durP1;ratioP1;P2;durP2;ratioP2
4047;SDS011;2038;51.728;6.674;2022-09-21T00:04:02;7.20;;;5.37;;
4047;SDS011;2038;51.728;6.674;2022-09-21T00:06:31;6.13;;;5.53;;
4047;SDS011;2038;51.728;6.674;2022-09-21T00:08:59;4.90;;;4.23;;
4047;SDS011;2038;51.728;6.674;2022-09-21T00:11:28;5.90;;;4.90;;
4047;SDS011;2038;51.728;6.674;2022-09-21T00:13:58;6.50;;;5.60;;
4047;SDS011;2038;51.728;6.674;2022-09-21T00:16:35;7.43;;;5.17;;
4047;SDS011;2038;51.728;6.674;2022-09-21T00:19:02;6.30;;;5.70;;
4047;SDS011;2038;51.728;6.674;2022-09-21T00:21:28;8.30;;;5.30;;
4047;SDS011;2038;51.728;6.674;2022-09-21T00:23:54;8.40;;;5.20;;
4047;SDS011;2038;51.728;6.674;2022-09-21T00:26:22;8.87;;;5.70;;
4047;SDS011;2038;51.728;6.674;2022-09-21T00:28:52;11.53;;;6.40;;
4047;SDS011;2038;51.728;6.674;2022-09-21T00:31:25;8.17;;;5.50;;
4047;SDS011;2038;51.728;6.674;2022-09-21T00:33:55;10.60;;;5.77;;
4047;SDS011;2038;51.728;6.674;2022-09-21T00:36:24;7.20;;;5.40;;
4047;SDS011;2038;51.728;6.674;2022-09-21T00:38:55;10.50;;;6.20;;
4047;SDS011;2038;51.728;6.674;2022-09-21T00:41:26;14.43;;;5.37;;
4047;SDS011;2038;51.728;6.674;2022-09-21T00:44:09;8.13;;;5.37;;
4047;SDS011;2038;51.728;6.674;2022-09-21T00:46:56;5.57;;;5.07;;
4047;SDS011;2038;51.728;6.674;2022-09-21T00:49:35;10.43;;;6.43;;
4047;SDS011;2038;51.728;6.674;2022-09-21T00:52:04;6.27;;;5.60;;
4047;SDS011;2038;51.728;6.674;2022-09-21T00:54:35;6.20;;;4.73;;
4047;SDS011;2038;51.728;6.674;2022-09-21T00:57:14;7.53;;;5.93;;
4047;SDS011;2038;51.728;6.674;2022-09-21T00:59:45;5.70;;;5.20;;
4047;SDS011;2038;51.728;6.674;2022-09-21T01:02:16;7.30;;;5.47;;
4047;SDS011;2038;51.728;6.674;2022-09-21T01:04:43;10.77;;;5.60;;
4047;SDS011;2038;51.728;6.674;2022-09-21T01:07:12;5.70;;;4.63;;
4047;SDS011;2038;51.728;6.674;2022-09-21T01:09:48;7.30;;;4.53;;
4047;SDS011;2038;51.728;6.674;2022-09-21T01:12:42;8.00;;;5.13;;
4047;SDS011;2038;51.728;6.674;2022-09-21T01:16:07;6.97;;;4.70;;
4047;SDS011;2038;51.728;6.674;2022-09-21T01:22:47;5.60;;;4.33;;
4047;SDS011;2038;51.728;6.674;2022-09-21T01:32:00;7.93;;;5.83;;
4047;SDS011;2038;51.728;6.674;2022-09-21T01:34:58;12.77;;;6.37;;
4047;SDS011;2038;51.728;6.674;2022-09-21T01:37:40;7.90;;;6.33;;
4047;SDS011;2038;51.728;6.674;2022-09-21T01:40:17;6.87;;;5.97;;
4047;SDS011;2038;51.728;6.674;2022-09-21T01:43:05;10.30;;;6.07;;
4047;SDS011;2038;51.728;6.674;2022-09-21T01:45:46;8.53;;;5.97;;
4047;SDS011;2038;51.728;6.674;2022-09-21T01:48:19;12.83;;;7.10;;
4047;SDS011;2038;51.728;6.674;2022-09-21T01:50:50;9.17;;;6.43;;
4047;SDS011;2038;51.728;6.674;2022-09-21T01:53:36;8.20;;;6.40;;
4047;SDS011;2038;51.728;6.674;2022-09-21T01:56:23;8.27;;;6.87;;
4047;SDS011;2038;51.728;6.674;2022-09-21T01:59:02;7.83;;;6.63;;
4047;SDS011;2038;51.728;6.674;2022-09-21T02:01:44;12.57;;;6.43;;
4047;SDS011;2038;51.728;6.674;2022-09-21T02:04:21;10.13;;;6.83;;
4047;SDS011;2038;51.728;6.674;2022-09-21T02:06:48;9.47;;;6.67;;
4047;SDS011;2038;51.728;6.674;2022-09-21T02:09:16;7.10;;;6.23;;
4047;SDS011;2038;51.728;6.674;2022-09-21T02:11:43;8.43;;;7.17;;
4047;SDS011;2038;51.728;6.674;2022-09-21T02:14:15;9.23;;;6.63;;
4047;SDS011;2038;51.728;6.674;2022-09-21T02:16:51;8.13;;;7.30;;
4047;SDS011;2038;51.728;6.674;2022-09-21T02:20:19;10.60;;;7.33;;
4047;SDS011;2038;51.728;6.674;2022-09-21T02:38:06;11.73;;;8.20;;
4047;SDS011;2038;51.728;6.674;2022-09-21T02:40:40;10.37;;;7.43;;
4047;SDS011;2038;51.728;6.674;2022-09-21T02:43:24;8.87;;;7.63;;
4047;SDS011;2038;51.728;6.674;2022-09-21T02:46:20;10.67;;;8.10;;
4047;SDS011;2038;51.728;6.674;2022-09-21T02:49:03;16.40;;;7.70;;
4047;SDS011;2038;51.728;6.674;2022-09-21T02:51:44;14.77;;;7.60;;
4047;SDS011;2038;51.728;6.674;2022-09-21T02:54:16;13.47;;;7.40;;
4047;SDS011;2038;51.728;6.674;2022-09-21T02:56:50;13.43;;;7.93;;
4047;SDS011;2038;51.728;6.674;2022-09-21T02:59:19;12.23;;;8.20;;
4047;SDS011;2038;51.728;6.674;2022-09-21T03:01:47;10.47;;;7.60;;
4047;SDS011;2038;51.728;6.674;2022-09-21T03:04:15;10.90;;;7.40;;
4047;SDS011;2038;51.728;6.674;2022-09-21T03:06:42;9.33;;;7.97;;
4047;SDS011;2038;51.728;6.674;2022-09-21T03:09:07;12.03;;;7.97;;
4047;SDS011;2038;51.728;6.674;2022-09-21T03:11:33;8.03;;;6.70;;
4047;SDS011;2038;51.728;6.674;2022-09-21T03:14:03;10.57;;;8.63;;
4047;SDS011;2038;51.728;6.674;2022-09-21T03:16:33;10.20;;;8.70;;
4047;SDS011;2038;51.728;6.674;2022-09-21T03:19:03;8.60;;;6.73;;
4047;SDS011;2038;51.728;6.674;2022-09-21T03:21:30;9.07;;;6.53;;
4047;SDS011;2038;51.728;6.674;2022-09-21T03:23:56;6.87;;;5.30;;
4047;SDS011;2038;51.728;6.674;2022-09-21T03:26:22;9.33;;;5.40;;
4047;SDS011;2038;51.728;6.674;2022-09-21T03:28:48;5.47;;;4.97;;
4047;SDS011;2038;51.728;6.674;2022-09-21T03:31:16;6.23;;;5.20;;
4047;SDS011;2038;51.728;6.674;2022-09-21T03:33:42;9.03;;;5.67;;
4047;SDS011;2038;51.728;6.674;2022-09-21T03:36:08;6.00;;;4.83;;
4047;SDS011;2038;51.728;6.674;2022-09-21T03:38:34;6.13;;;5.53;;
4047;SDS011;2038;51.728;6.674;2022-09-21T03:41:00;8.30;;;5.90;;
4047;SDS011;2038;51.728;6.674;2022-09-21T03:43:26;8.23;;;6.20;;
4047;SDS011;2038;51.728;6.674;2022-09-21T03:45:52;6.40;;;5.57;;
4047;SDS011;2038;51.728;6.674;2022-09-21T03:48:18;9.57;;;5.83;;
4047;SDS011;2038;51.728;6.674;2022-09-21T03:50:46;8.00;;;5.83;;
4047;SDS011;2038;51.728;6.674;2022-09-21T03:53:12;8.47;;;6.10;;
4047;SDS011;2038;51.728;6.674;2022-09-21T03:55:38;6.60;;;5.70;;
4047;SDS011;2038;51.728;6.674;2022-09-21T03:58:06;6.30;;;5.50;;
4047;SDS011;2038;51.728;6.674;2022-09-21T04:00:33;8.63;;;6.57;;
4047;SDS011;2038;51.728;6.674;2022-09-21T04:03:00;7.67;;;6.00;;
4047;SDS011;2038;51.728;6.674;2022-09-21T04:05:26;8.80;;;6.73;;
4047;SDS011;2038;51.728;6.674;2022-09-21T04:07:53;10.17;;;6.37;;
4047;SDS011;2038;51.728;6.674;2022-09-21T04:10:21;9.40;;;7.47;;
4047;SDS011;2038;51.728;6.674;2022-09-21T04:12:57;9.80;;;7.83;;
4047;SDS011;2038;51.728;6.674;2022-09-21T04:15:28;9.80;;;7.07;;
4047;SDS011;2038;51.728;6.674;2022-09-21T04:17:55;8.83;;;6.67;;
4047;SDS011;2038;51.728;6.674;2022-09-21T04:20:22;8.60;;;7.67;;
4047;SDS011;2038;51.728;6.674;2022-09-21T04:22:48;8.50;;;7.20;;
4047;SDS011;2038;51.728;6.674;2022-09-21T04:25:15;8.50;;;7.03;;
4047;SDS011;2038;51.728;6.674;2022-09-21T04:27:42;10.03;;;6.00;;
4047;SDS011;2038;51.728;6.674;2022-09-21T04:30:09;9.63;;;8.03;;
4047;SDS011;2038;51.728;6.674;2022-09-21T04:32:41;8.23;;;7.40;;
4047;SDS011;2038;51.728;6.674;2022-09-21T04:35:08;12.53;;;8.50;;
4047;SDS011;2038;51.728;6.674;2022-09-21T04:37:34;13.20;;;9.40;;
4047;SDS011;2038;51.728;6.674;2022-09-21T04:40:00;11.37;;;8.40;;
4047;SDS011;2038;51.728;6.674;2022-09-21T04:42:27;11.23;;;8.60;;
4047;SDS011;2038;51.728;6.674;2022-09-21T04:44:54;11.03;;;9.83;;
4047;SDS011;2038;51.728;6.674;2022-09-21T04:47:20;15.40;;;8.33;;
4047;SDS011;2038;51.728;6.674;2022-09-21T04:49:48;9.50;;;8.13;;
4047;SDS011;2038;51.728;6.674;2022-09-21T04:52:14;11.90;;;8.90;;
4047;SDS011;2038;51.728;6.674;2022-09-21T04:54:40;11.80;;;8.67;;
4047;SDS011;2038;51.728;6.674;2022-09-21T04:57:06;9.13;;;8.20;;
4047;SDS011;2038;51.728;6.674;2022-09-21T04:59:32;11.73;;;7.70;;
4047;SDS011;2038;51.728;6.674;2022-09-21T05:01:58;9.30;;;8.00;;
4047;SDS011;2038;51.728;6.674;2022-09-21T05:04:24;10.63;;;7.50;;
4047;SDS011;2038;51.728;6.674;2022-09-21T05:06:51;8.77;;;7.27;;
4047;SDS011;2038;51.728;6.674;2022-09-21T05:09:18;6.87;;;6.07;;
4047;SDS011;2038;51.728;6.674;2022-09-21T05:12:02;11.77;;;7.67;;
4047;SDS011;2038;51.728;6.674;2022-09-21T05:14:29;8.20;;;7.40;;
4047;SDS011;2038;51.728;6.674;2022-09-21T05:16:55;10.57;;;8.30;;
4047;SDS011;2038;51.728;6.674;2022-09-21T05:19:21;10.33;;;8.30;;
4047;SDS011;2038;51.728;6.674;2022-09-21T05:21:47;11.30;;;7.77;;
4047;SDS011;2038;51.728;6.674;2022-09-21T05:24:14;9.27;;;7.63;;
4047;SDS011;2038;51.728;6.674;2022-09-21T05:26:40;10.53;;;8.20;;
4047;SDS011;2038;51.728;6.674;2022-09-21T05:29:07;14.00;;;10.00;;
4047;SDS011;2038;51.728;6.674;2022-09-21T05:37:19;34.13;;;23.40;;
4047;SDS011;2038;51.728;6.674;2022-09-21T05:40:02;29.27;;;22.70;;
4047;SDS011;2038;51.728;6.674;2022-09-21T05:42:31;34.07;;;26.10;;
4047;SDS011;2038;51.728;6.674;2022-09-21T05:44:58;30.43;;;22.27;;
4047;SDS011;2038;51.728;6.674;2022-09-21T05:47:48;24.57;;;18.83;;
4047;SDS011;2038;51.728;6.674;2022-09-21T05:50:32;16.60;;;13.00;;
4047;SDS011;2038;51.728;6.674;2022-09-21T05:53:45;11.77;;;9.37;;
4047;SDS011;2038;51.728;6.674;2022-09-21T06:05:13;12.20;;;7.90;;
4047;SDS011;2038;51.728;6.674;2022-09-21T06:07:40;11.30;;;7.57;;
4047;SDS011;2038;51.728;6.674;2022-09-21T06:10:07;10.60;;;9.00;;
4047;SDS011;2038;51.728;6.674;2022-09-21T06:12:37;10.70;;;8.70;;
4047;SDS011;2038;51.728;6.674;2022-09-21T06:15:04;10.30;;;8.37;;
4047;SDS011;2038;51.728;6.674;2022-09-21T06:17:36;9.47;;;7.47;;
4047;SDS011;2038;51.728;6.674;2022-09-21T06:20:02;11.00;;;8.20;;
4047;SDS011;2038;51.728;6.674;2022-09-21T06:22:30;8.57;;;7.67;;
4047;SDS011;2038;51.728;6.674;2022-09-21T06:24:57;11.00;;;9.13;;
4047;SDS011;2038;51.728;6.674;2022-09-21T06:27:23;11.30;;;9.37;;
4047;SDS011;2038;51.728;6.674;2022-09-21T06:29:49;12.10;;;9.87;;
4047;SDS011;2038;51.728;6.674;2022-09-21T06:32:16;11.27;;;9.43;;
4047;SDS011;2038;51.728;6.674;2022-09-21T06:34:43;10.83;;;9.00;;
4047;SDS011;2038;51.728;6.674;2022-09-21T06:37:11;12.50;;;8.50;;
4047;SDS011;2038;51.728;6.674;2022-09-21T06:39:41;9.20;;;8.30;;
4047;SDS011;2038;51.728;6.674;2022-09-21T06:42:07;8.10;;;7.30;;
4047;SDS011;2038;51.728;6.674;2022-09-21T06:44:34;9.53;;;7.63;;
4047;SDS011;2038;51.728;6.674;2022-09-21T06:47:00;13.20;;;9.00;;
4047;SDS011;2038;51.728;6.674;2022-09-21T06:49:26;15.43;;;12.47;;
4047;SDS011;2038;51.728;6.674;2022-09-21T06:51:53;14.43;;;12.00;;
4047;SDS011;2038;51.728;6.674;2022-09-21T06:54:20;15.73;;;12.37;;
4047;SDS011;2038;51.728;6.674;2022-09-21T06:56:46;16.80;;;14.23;;
4047;SDS011;2038;51.728;6.674;2022-09-21T06:59:12;18.47;;;15.03;;
4047;SDS011;2038;51.728;6.674;2022-09-21T07:01:39;18.70;;;16.03;;
4047;SDS011;2038;51.728;6.674;2022-09-21T07:04:05;18.83;;;14.10;;
4047;SDS011;2038;51.728;6.674;2022-09-21T07:06:33;15.17;;;12.80;;
4047;SDS011;2038;51.728;6.674;2022-09-21T07:08:59;21.53;;;13.73;;
4047;SDS011;2038;51.728;6.674;2022-09-21T07:11:26;22.20;;;15.80;;
4047;SDS011;2038;51.728;6.674;2022-09-21T07:13:53;27.17;;;20.00;;
4047;SDS011;2038;51.728;6.674;2022-09-21T07:16:20;25.13;;;18.90;;
4047;SDS011;2038;51.728;6.674;2022-09-21T07:18:47;26.77;;;19.47;;
4047;SDS011;2038;51.728;6.674;2022-09-21T07:21:14;20.33;;;16.47;;
4047;SDS011;2038;51.728;6.674;2022-09-21T07:23:40;27.97;;;19.47;;
4047;SDS011;2038;51.728;6.674;2022-09-21T07:26:08;29.83;;;19.60;;
4047;SDS011;2038;51.728;6.674;2022-09-21T07:28:37;28.30;;;21.40;;
4047;SDS011;2038;51.728;6.674;2022-09-21T07:31:08;27.50;;;20.60;;
4047;SDS011;2038;51.728;6.674;2022-09-21T07:33:40;33.97;;;22.63;;
4047;SDS011;2038;51.728;6.674;2022-09-21T07:36:11;29.30;;;19.33;;
4047;SDS011;2038;51.728;6.674;2022-09-21T07:38:41;22.40;;;17.00;;
4047;SDS011;2038;51.728;6.674;2022-09-21T07:41:09;24.23;;;17.30;;
4047;SDS011;2038;51.728;6.674;2022-09-21T07:43:37;23.17;;;16.87;;
4047;SDS011;2038;51.728;6.674;2022-09-21T07:46:05;30.93;;;19.87;;
4047;SDS011;2038;51.728;6.674;2022-09-21T07:48:34;24.63;;;17.53;;
4047;SDS011;2038;51.728;6.674;2022-09-21T07:51:01;21.90;;;16.07;;
4047;SDS011;2038;51.728;6.674;2022-09-21T07:53:30;22.03;;;17.30;;
4047;SDS011;2038;51.728;6.674;2022-09-21T07:56:04;21.43;;;15.90;;
4047;SDS011;2038;51.728;6.674;2022-09-21T07:58:34;18.10;;;15.43;;
4047;SDS011;2038;51.728;6.674;2022-09-21T08:01:21;20.93;;;16.30;;
4047;SDS011;2038;51.728;6.674;2022-09-21T08:03:52;21.83;;;14.60;;
4047;SDS011;2038;51.728;6.674;2022-09-21T08:06:21;18.97;;;16.03;;
4047;SDS011;2038;51.728;6.674;2022-09-21T08:08:50;20.90;;;14.97;;
4047;SDS011;2038;51.728;6.674;2022-09-21T08:11:17;20.87;;;15.37;;
4047;SDS011;2038;51.728;6.674;2022-09-21T08:13:47;24.40;;;15.10;;
4047;SDS011;2038;51.728;6.674;2022-09-21T08:16:17;16.00;;;11.77;;
4047;SDS011;2038;51.728;6.674;2022-09-21T08:18:43;19.03;;;11.03;;
4047;SDS011;2038;51.728;6.674;2022-09-21T08:21:09;17.13;;;13.00;;
4047;SDS011;2038;51.728;6.674;2022-09-21T08:23:36;15.53;;;11.00;;
4047;SDS011;2038;51.728;6.674;2022-09-21T08:26:05;18.33;;;10.70;;
4047;SDS011;2038;51.728;6.674;2022-09-21T08:28:32;12.27;;;9.33;;
4047;SDS011;2038;51.728;6.674;2022-09-21T08:31:00;13.53;;;10.60;;
4047;SDS011;2038;51.728;6.674;2022-09-21T08:33:34;19.30;;;11.50;;
4047;SDS011;2038;51.728;6.674;2022-09-21T08:36:01;20.43;;;11.30;;
4047;SDS011;2038;51.728;6.674;2022-09-21T08:38:32;16.40;;;9.70;;
4047;SDS011;2038;51.728;6.674;2022-09-21T08:41:02;12.27;;;8.40;;
4047;SDS011;2038;51.728;6.674;2022-09-21T08:43:48;16.77;;;9.10;;
4047;SDS011;2038;51.728;6.674;2022-09-21T08:46:22;14.93;;;8.80;;
4047;SDS011;2038;51.728;6.674;2022-09-21T08:48:58;13.70;;;10.10;;
4047;SDS011;2038;51.728;6.674;2022-09-21T08:51:41;10.80;;;8.20;;
4047;SDS011;2038;51.728;6.674;2022-09-21T08:54:29;15.03;;;7.50;;
4047;SDS011;2038;51.728;6.674;2022-09-21T08:57:19;11.87;;;4.80;;
4047;SDS011;2038;51.728;6.674;2022-09-21T08:59:52;6.60;;;4.00;;
4047;SDS011;2038;51.728;6.674;2022-09-21T09:11:45;10.63;;;5.00;;
4047;SDS011;2038;51.728;6.674;2022-09-21T09:14:39;11.90;;;5.30;;
4047;SDS011;2038;51.728;6.674;2022-09-21T09:20:48;7.70;;;4.67;;
4047;SDS011;2038;51.728;6.674;2022-09-21T09:23:27;16.77;;;4.10;;
4047;SDS011;2038;51.728;6.674;2022-09-21T09:26:20;5.67;;;2.80;;
4047;SDS011;2038;51.728;6.674;2022-09-21T09:28:58;4.63;;;3.27;;
4047;SDS011;2038;51.728;6.674;2022-09-21T09:32:04;7.10;;;3.77;;
4047;SDS011;2038;51.728;6.674;2022-09-21T09:35:03;6.83;;;3.83;;
4047;SDS011;2038;51.728;6.674;2022-09-21T09:37:52;5.07;;;2.90;;
4047;SDS011;2038;51.728;6.674;2022-09-21T09:43:51;12.30;;;2.73;;
4047;SDS011;2038;51.728;6.674;2022-09-21T09:49:56;12.43;;;3.70;;
4047;SDS011;2038;51.728;6.674;2022-09-21T09:52:25;3.23;;;1.20;;
4047;SDS011;2038;51.728;6.674;2022-09-21T09:54:51;3.17;;;1.43;;
4047;SDS011;2038;51.728;6.674;2022-09-21T09:57:22;3.33;;;1.03;;
4047;SDS011;2038;51.728;6.674;2022-09-21T09:59:58;2.00;;;1.27;;
4047;SDS011;2038;51.728;6.674;2022-09-21T10:02:29;1.83;;;1.37;;
4047;SDS011;2038;51.728;6.674;2022-09-21T10:04:59;2.77;;;1.20;;
4047;SDS011;2038;51.728;6.674;2022-09-21T10:07:42;1.50;;;1.00;;
4047;SDS011;2038;51.728;6.674;2022-09-21T10:10:25;5.60;;;1.30;;
4047;SDS011;2038;51.728;6.674;2022-09-21T10:13:05;4.30;;;1.73;;
4047;SDS011;2038;51.728;6.674;2022-09-21T10:15:43;3.83;;;1.67;;
4047;SDS011;2038;51.728;6.674;2022-09-21T10:18:16;3.17;;;1.43;;
4047;SDS011;2038;51.728;6.674;2022-09-21T10:20:51;3.93;;;1.27;;
4047;SDS011;2038;51.728;6.674;2022-09-21T10:23:27;3.63;;;1.40;;
4047;SDS011;2038;51.728;6.674;2022-09-21T10:25:58;7.03;;;1.70;;
4047;SDS011;2038;51.728;6.674;2022-09-21T10:28:33;1.77;;;0.90;;
4047;SDS011;2038;51.728;6.674;2022-09-21T10:31:17;2.37;;;1.30;;
4047;SDS011;2038;51.728;6.674;2022-09-21T10:33:52;3.27;;;1.40;;
4047;SDS011;2038;51.728;6.674;2022-09-21T10:36:38;4.33;;;1.67;;
4047;SDS011;2038;51.728;6.674;2022-09-21T10:39:09;2.80;;;1.70;;
4047;SDS011;2038;51.728;6.674;2022-09-21T10:41:55;10.73;;;1.87;;
4047;SDS011;2038;51.728;6.674;2022-09-21T10:44:42;2.53;;;1.60;;
4047;SDS011;2038;51.728;6.674;2022-09-21T10:49:57;4.33;;;1.80;;
4047;SDS011;2038;51.728;6.674;2022-09-21T10:52:32;7.90;;;2.10;;
4047;SDS011;2038;51.728;6.674;2022-09-21T10:55:06;1.63;;;1.43;;
4047;SDS011;2038;51.728;6.674;2022-09-21T10:57:46;1.63;;;1.53;;
4047;SDS011;2038;51.728;6.674;2022-09-21T11:02:51;2.80;;;2.13;;
4047;SDS011;2038;51.728;6.674;2022-09-21T11:05:37;2.90;;;1.13;;
4047;SDS011;2038;51.728;6.674;2022-09-21T11:08:20;5.43;;;1.30;;
4047;SDS011;2038;51.728;6.674;2022-09-21T11:13:51;4.40;;;1.43;;
4047;SDS011;2038;51.728;6.674;2022-09-21T11:16:33;5.63;;;1.37;;
4047;SDS011;2038;51.728;6.674;2022-09-21T11:19:14;3.93;;;1.63;;
4047;SDS011;2038;51.728;6.674;2022-09-21T11:25:25;3.57;;;0.97;;
4047;SDS011;2038;51.728;6.674;2022-09-21T11:28:12;3.07;;;1.10;;
4047;SDS011;2038;51.728;6.674;2022-09-21T11:34:06;1.80;;;1.00;;
4047;SDS011;2038;51.728;6.674;2022-09-21T11:37:15;1.10;;;1.00;;
4047;SDS011;2038;51.728;6.674;2022-09-21T11:46:06;1.63;;;0.83;;
4047;SDS011;2038;51.728;6.674;2022-09-21T11:52:37;2.60;;;1.03;;
4047;SDS011;2038;51.728;6.674;2022-09-21T11:55:24;5.53;;;1.10;;
4047;SDS011;2038;51.728;6.674;2022-09-21T11:58:26;4.80;;;1.00;;
4047;SDS011;2038;51.728;6.674;2022-09-21T12:01:33;4.97;;;1.50;;
4047;SDS011;2038;51.728;6.674;2022-09-21T12:04:54;1.47;;;0.90;;
4047;SDS011;2038;51.728;6.674;2022-09-21T12:11:32;3.30;;;2.10;;
4047;SDS011;2038;51.728;6.674;2022-09-21T12:23:16;3.33;;;2.53;;
4047;SDS011;2038;51.728;6.674;2022-09-21T12:26:28;4.43;;;2.93;;
4047;SDS011;2038;51.728;6.674;2022-09-21T12:29:35;5.00;;;2.90;;
4047;SDS011;2038;51.728;6.674;2022-09-21T12:32:27;9.17;;;3.20;;
4047;SDS011;2038;51.728;6.674;2022-09-21T12:44:22;6.93;;;3.37;;
4047;SDS011;2038;51.728;6.674;2022-09-21T12:47:15;5.00;;;3.50;;
4047;SDS011;2038;51.728;6.674;2022-09-21T12:50:22;3.80;;;3.40;;
4047;SDS011;2038;51.728;6.674;2022-09-21T12:53:23;9.30;;;2.70;;
4047;SDS011;2038;51.728;6.674;2022-09-21T13:02:21;6.33;;;2.90;;
4047;SDS011;2038;51.728;6.674;2022-09-21T13:08:10;3.27;;;2.40;;
4047;SDS011;2038;51.728;6.674;2022-09-21T13:10:57;5.53;;;3.37;;
4047;SDS011;2038;51.728;6.674;2022-09-21T13:16:37;3.97;;;2.70;;
4047;SDS011;2038;51.728;6.674;2022-09-21T13:19:14;3.30;;;2.60;;
4047;SDS011;2038;51.728;6.674;2022-09-21T13:22:08;4.10;;;2.60;;
4047;SDS011;2038;51.728;6.674;2022-09-21T13:25:00;7.73;;;3.37;;
4047;SDS011;2038;51.728;6.674;2022-09-21T13:34:15;4.30;;;3.07;;
4047;SDS011;2038;51.728;6.674;2022-09-21T13:42:42;5.70;;;3.37;;
4047;SDS011;2038;51.728;6.674;2022-09-21T13:47:43;3.87;;;2.03;;
4047;SDS011;2038;51.728;6.674;2022-09-21T13:50:24;7.13;;;2.80;;
4047;SDS011;2038;51.728;6.674;2022-09-21T13:53:04;8.70;;;2.70;;
4047;SDS011;2038;51.728;6.674;2022-09-21T13:55:50;3.40;;;2.40;;
4047;SDS011;2038;51.728;6.674;2022-09-21T13:58:30;3.97;;;2.40;;
4047;SDS011;2038;51.728;6.674;2022-09-21T14:01:06;6.23;;;2.20;;
4047;SDS011;2038;51.728;6.674;2022-09-21T14:03:56;6.00;;;2.20;;
4047;SDS011;2038;51.728;6.674;2022-09-21T14:06:41;3.90;;;2.03;;
4047;SDS011;2038;51.728;6.674;2022-09-21T14:09:21;3.87;;;1.70;;
4047;SDS011;2038;51.728;6.674;2022-09-21T14:12:24;3.97;;;2.10;;
4047;SDS011;2038;51.728;6.674;2022-09-21T14:15:08;4.07;;;2.30;;
4047;SDS011;2038;51.728;6.674;2022-09-21T14:17:43;2.97;;;1.90;;
4047;SDS011;2038;51.728;6.674;2022-09-21T14:23:32;3.23;;;1.70;;
4047;SDS011;2038;51.728;6.674;2022-09-21T14:26:01;3.87;;;1.70;;
4047;SDS011;2038;51.728;6.674;2022-09-21T14:29:07;6.07;;;2.20;;
4047;SDS011;2038;51.728;6.674;2022-09-21T14:31:56;3.80;;;2.07;;
4047;SDS011;2038;51.728;6.674;2022-09-21T14:34:29;3.97;;;2.00;;
4047;SDS011;2038;51.728;6.674;2022-09-21T14:37:08;4.13;;;2.20;;
4047;SDS011;2038;51.728;6.674;2022-09-21T14:40:26;3.57;;;1.90;;
4047;SDS011;2038;51.728;6.674;2022-09-21T14:43:05;3.40;;;2.00;;
4047;SDS011;2038;51.728;6.674;2022-09-21T15:00:35;1.97;;;1.60;;
4047;SDS011;2038;51.728;6.674;2022-09-21T15:06:23;7.13;;;2.80;;
4047;SDS011;2038;51.728;6.674;2022-09-21T15:09:26;4.90;;;2.20;;
4047;SDS011;2038;51.728;6.674;2022-09-21T15:12:57;3.80;;;2.53;;
4047;SDS011;2038;51.728;6.674;2022-09-21T15:16:09;2.80;;;1.83;;
4047;SDS011;2038;51.728;6.674;2022-09-21T15:19:21;2.30;;;2.00;;
4047;SDS011;2038;51.728;6.674;2022-09-21T15:25:14;5.17;;;2.97;;
4047;SDS011;2038;51.728;6.674;2022-09-21T15:27:37;3.60;;;2.30;;
4047;SDS011;2038;51.728;6.674;2022-09-21T15:30:17;2.97;;;2.47;;
4047;SDS011;2038;51.728;6.674;2022-09-21T15:32:45;2.97;;;2.60;;
4047;SDS011;2038;51.728;6.674;2022-09-21T15:35:23;2.53;;;2.20;;
4047;SDS011;2038;51.728;6.674;2022-09-21T15:37:57;6.30;;;2.60;;
4047;SDS011;2038;51.728;6.674;2022-09-21T15:40:26;6.97;;;2.53;;
4047;SDS011;2038;51.728;6.674;2022-09-21T15:45:59;4.93;;;2.73;;
4047;SDS011;2038;51.728;6.674;2022-09-21T15:48:35;4.77;;;3.40;;
4047;SDS011;2038;51.728;6.674;2022-09-21T15:53:48;6.17;;;3.20;;
4047;SDS011;2038;51.728;6.674;2022-09-21T15:56:23;7.80;;;4.10;;
4047;SDS011;2038;51.728;6.674;2022-09-21T15:58:59;3.23;;;2.80;;
4047;SDS011;2038;51.728;6.674;2022-09-21T16:01:32;2.73;;;2.03;;
4047;SDS011;2038;51.728;6.674;2022-09-21T16:04:13;3.63;;;3.07;;
4047;SDS011;2038;51.728;6.674;2022-09-21T16:06:46;4.90;;;2.40;;
4047;SDS011;2038;51.728;6.674;2022-09-21T16:09:35;5.33;;;2.33;;
4047;SDS011;2038;51.728;6.674;2022-09-21T16:14:51;6.97;;;2.50;;
4047;SDS011;2038;51.728;6.674;2022-09-21T16:17:24;3.63;;;2.30;;
4047;SDS011;2038;51.728;6.674;2022-09-21T16:20:19;3.10;;;2.43;;
4047;SDS011;2038;51.728;6.674;2022-09-21T16:22:48;3.20;;;2.50;;
4047;SDS011;2038;51.728;6.674;2022-09-21T16:25:31;3.80;;;2.50;;
4047;SDS011;2038;51.728;6.674;2022-09-21T16:30:46;2.47;;;2.27;;
4047;SDS011;2038;51.728;6.674;2022-09-21T16:38:58;4.23;;;2.53;;
4047;SDS011;2038;51.728;6.674;2022-09-21T16:41:35;3.13;;;2.60;;
4047;SDS011;2038;51.728;6.674;2022-09-21T16:44:08;5.50;;;2.90;;
4047;SDS011;2038;51.728;6.674;2022-09-21T16:46:44;7.43;;;2.53;;
4047;SDS011;2038;51.728;6.674;2022-09-21T16:49:14;4.40;;;3.20;;
4047;SDS011;2038;51.728;6.674;2022-09-21T16:51:46;3.57;;;2.57;;
4047;SDS011;2038;51.728;6.674;2022-09-21T16:54:16;5.03;;;3.20;;
4047;SDS011;2038;51.728;6.674;2022-09-21T16:56:46;3.87;;;2.90;;
4047;SDS011;2038;51.728;6.674;2022-09-21T16:59:13;4.23;;;3.10;;
4047;SDS011;2038;51.728;6.674;2022-09-21T17:01:47;7.90;;;3.20;;
4047;SDS011;2038;51.728;6.674;2022-09-21T17:04:17;3.53;;;2.90;;
4047;SDS011;2038;51.728;6.674;2022-09-21T17:06:46;4.90;;;3.27;;
4047;SDS011;2038;51.728;6.674;2022-09-21T17:09:22;3.43;;;3.13;;
4047;SDS011;2038;51.728;6.674;2022-09-21T17:11:50;4.13;;;2.90;;
4047;SDS011;2038;51.728;6.674;2022-09-21T17:14:18;4.20;;;3.37;;
4047;SDS011;2038;51.728;6.674;2022-09-21T17:16:46;4.00;;;3.10;;
4047;SDS011;2038;51.728;6.674;2022-09-21T17:19:17;4.10;;;3.50;;
4047;SDS011;2038;51.728;6.674;2022-09-21T17:21:44;4.50;;;3.00;;
4047;SDS011;2038;51.728;6.674;2022-09-21T17:24:12;5.57;;;3.13;;
4047;SDS011;2038;51.728;6.674;2022-09-21T17:26:40;4.50;;;3.00;;
4047;SDS011;2038;51.728;6.674;2022-09-21T17:29:13;4.80;;;3.40;;
4047;SDS011;2038;51.728;6.674;2022-09-21T17:31:52;3.63;;;2.90;;
4047;SDS011;2038;51.728;6.674;2022-09-21T17:34:21;7.47;;;3.00;;
4047;SDS011;2038;51.728;6.674;2022-09-21T17:36:51;5.10;;;3.40;;
4047;SDS011;2038;51.728;6.674;2022-09-21T17:39:19;6.93;;;3.40;;
4047;SDS011;2038;51.728;6.674;2022-09-21T17:42:03;7.17;;;4.30;;
4047;SDS011;2038;51.728;6.674;2022-09-21T17:47:52;6.13;;;3.93;;
4047;SDS011;2038;51.728;6.674;2022-09-21T17:50:25;8.97;;;5.87;;
4047;SDS011;2038;51.728;6.674;2022-09-21T17:52:53;7.63;;;4.93;;
4047;SDS011;2038;51.728;6.674;2022-09-21T17:55:42;6.40;;;4.77;;
4047;SDS011;2038;51.728;6.674;2022-09-21T17:58:37;5.43;;;4.67;;
4047;SDS011;2038;51.728;6.674;2022-09-21T18:01:18;4.13;;;3.43;;
4047;SDS011;2038;51.728;6.674;2022-09-21T18:04:04;15.43;;;4.97;;
4047;SDS011;2038;51.728;6.674;2022-09-21T18:06:35;4.90;;;4.40;;
4047;SDS011;2038;51.728;6.674;2022-09-21T18:09:01;7.80;;;4.70;;
4047;SDS011;2038;51.728;6.674;2022-09-21T18:11:35;6.33;;;4.23;;
4047;SDS011;2038;51.728;6.674;2022-09-21T18:14:54;5.63;;;4.40;;
4047;SDS011;2038;51.728;6.674;2022-09-21T18:20:54;4.90;;;4.40;;
4047;SDS011;2038;51.728;6.674;2022-09-21T18:26:52;9.73;;;4.83;;
4047;SDS011;2038;51.728;6.674;2022-09-21T18:29:26;3.97;;;3.57;;
4047;SDS011;2038;51.728;6.674;2022-09-21T18:44:02;4.60;;;4.07;;
4047;SDS011;2038;51.728;6.674;2022-09-21T18:49:58;4.60;;;4.20;;
4047;SDS011;2038;51.728;6.674;2022-09-21T18:53:08;7.07;;;5.60;;
4047;SDS011;2038;51.728;6.674;2022-09-21T18:56:08;5.60;;;4.97;;
4047;SDS011;2038;51.728;6.674;2022-09-21T18:58:36;6.37;;;5.77;;
4047;SDS011;2038;51.728;6.674;2022-09-21T19:01:04;8.63;;;5.27;;
4047;SDS011;2038;51.728;6.674;2022-09-21T19:03:31;6.80;;;5.07;;
4047;SDS011;2038;51.728;6.674;2022-09-21T19:11:46;7.40;;;5.87;;
4047;SDS011;2038;51.728;6.674;2022-09-21T19:14:54;8.50;;;6.67;;
4047;SDS011;2038;51.728;6.674;2022-09-21T19:26:39;8.37;;;5.70;;
4047;SDS011;2038;51.728;6.674;2022-09-21T19:29:33;5.90;;;4.90;;
4047;SDS011;2038;51.728;6.674;2022-09-21T19:32:13;6.73;;;6.03;;
4047;SDS011;2038;51.728;6.674;2022-09-21T19:34:55;8.43;;;5.80;;
4047;SDS011;2038;51.728;6.674;2022-09-21T19:37:25;12.23;;;6.20;;
4047;SDS011;2038;51.728;6.674;2022-09-21T19:39:51;6.50;;;5.80;;